createdAt,value
2017-06-12T00:01:33.047Z,11.57
2017-06-12T00:04:01.516Z,12.90
2017-06-12T00:06:30.173Z,12.90
2017-06-12T00:08:58.657Z,14.43
2017-06-12T00:11:27.133Z,14.73
2017-06-12T00:13:56.787Z,13.93
2017-06-12T00:16:25.714Z,16.10
2017-06-12T00:18:54.202Z,14.50
2017-06-12T00:21:23.540Z,14.20
2017-06-12T00:23:52.021Z,14.73
2017-06-12T00:26:20.531Z,15.80
2017-06-12T00:28:49.261Z,14.70
2017-06-12T00:31:18.016Z,13.33
2017-06-12T00:33:46.946Z,15.33
2017-06-12T00:36:15.837Z,12.60
2017-06-12T00:38:45.294Z,14.63
2017-06-12T00:41:13.750Z,14.20
2017-06-12T00:43:42.445Z,14.70
2017-06-12T00:46:11.037Z,13.93
2017-06-12T00:48:39.530Z,15.90
2017-06-12T00:51:08.010Z,15.20
2017-06-12T00:53:37.009Z,15.63
2017-06-12T00:56:05.606Z,16.80
2017-06-12T00:58:34.180Z,17.47
2017-06-12T01:01:02.658Z,16.90
2017-06-12T01:03:31.384Z,17.43
2017-06-12T01:05:59.974Z,17.20
2017-06-12T01:08:28.544Z,17.20
2017-06-12T01:10:57.285Z,17.10
2017-06-12T01:13:25.745Z,18.60
2017-06-12T01:15:54.607Z,16.40
2017-06-12T01:18:23.689Z,17.80
2017-06-12T01:20:52.193Z,19.70
2017-06-12T01:23:20.669Z,19.53
2017-06-12T01:25:49.156Z,18.87
2017-06-12T01:28:17.823Z,19.57
2017-06-12T01:30:46.496Z,19.60
2017-06-12T01:33:15.052Z,20.83
2017-06-12T01:35:43.889Z,20.03
2017-06-12T01:38:12.365Z,17.97
2017-06-12T01:40:41.014Z,18.03
2017-06-12T01:43:09.525Z,20.17
2017-06-12T01:45:38.043Z,18.77
2017-06-12T01:48:07.486Z,21.80
2017-06-12T01:50:35.977Z,21.27
2017-06-12T01:53:04.505Z,23.53
2017-06-12T01:55:33.163Z,24.33
2017-06-12T01:58:01.949Z,22.10
2017-06-12T02:00:30.536Z,21.43
2017-06-12T02:02:59.262Z,24.97
2017-06-12T02:05:28.533Z,24.60
2017-06-12T02:07:57.032Z,26.90
2017-06-12T02:10:25.575Z,26.33
2017-06-12T02:12:54.039Z,27.00
2017-06-12T02:15:22.907Z,25.87
2017-06-12T02:17:52.609Z,24.30
2017-06-12T02:20:21.955Z,25.00
2017-06-12T02:22:50.739Z,26.63
2017-06-12T02:25:19.209Z,24.03
2017-06-12T02:27:47.681Z,27.27
2017-06-12T02:30:16.189Z,23.47
2017-06-12T02:32:44.674Z,21.50
2017-06-12T02:35:13.620Z,19.57
2017-06-12T02:37:42.085Z,14.00
2017-06-12T02:40:10.543Z,14.83
2017-06-12T02:42:39.240Z,12.67
2017-06-12T02:45:07.837Z,12.27
2017-06-12T02:47:36.301Z,11.40
2017-06-12T02:50:04.951Z,9.03
2017-06-12T02:52:33.579Z,10.90
2017-06-12T02:55:02.367Z,10.07
2017-06-12T02:57:31.150Z,8.63
2017-06-12T02:59:59.741Z,9.17
2017-06-12T03:02:28.228Z,7.30
2017-06-12T03:04:56.754Z,8.00
2017-06-12T03:07:25.253Z,6.63
2017-06-12T03:10:07.317Z,9.87
2017-06-12T03:12:36.377Z,7.57
2017-06-12T03:15:05.089Z,5.03
2017-06-12T03:17:33.652Z,8.70
2017-06-12T03:20:02.652Z,8.37
2017-06-12T03:22:31.125Z,5.40
2017-06-12T03:24:59.593Z,7.63
2017-06-12T03:27:29.004Z,7.57
2017-06-12T03:29:57.633Z,8.07
2017-06-12T03:32:26.181Z,5.00
2017-06-12T03:34:55.062Z,8.33
2017-06-12T03:37:23.646Z,6.10
2017-06-12T03:39:52.338Z,6.33
2017-06-12T03:42:20.889Z,5.70
2017-06-12T03:44:50.093Z,9.33
2017-06-12T03:47:18.603Z,9.80
2017-06-12T03:49:47.055Z,13.67
2017-06-12T03:52:15.985Z,6.33
2017-06-12T03:54:44.426Z,7.17
2017-06-12T03:57:12.995Z,6.63
2017-06-12T03:59:41.934Z,9.47
2017-06-12T04:02:10.394Z,6.30
2017-06-12T04:04:38.857Z,7.43
2017-06-12T04:07:08.294Z,5.30
2017-06-12T04:09:36.992Z,8.60
2017-06-12T04:12:05.491Z,8.83
2017-06-12T04:14:33.965Z,6.60
2017-06-12T04:17:02.909Z,8.40
2017-06-12T04:19:32.263Z,16.60
2017-06-12T04:22:00.725Z,8.30
2017-06-12T04:24:29.746Z,10.93
2017-06-12T04:26:58.217Z,9.53
2017-06-12T04:29:27.112Z,8.37
2017-06-12T04:31:55.649Z,7.20
2017-06-12T04:34:25.101Z,9.03
2017-06-12T04:36:53.660Z,7.00
2017-06-12T04:39:22.131Z,7.90
2017-06-12T04:41:52.137Z,9.63
2017-06-12T04:44:20.612Z,13.57
2017-06-12T04:46:49.609Z,9.00
2017-06-12T04:49:18.809Z,18.13
2017-06-12T04:51:47.416Z,11.10
2017-06-12T04:54:16.077Z,10.23
2017-06-12T04:56:44.730Z,7.67
2017-06-12T04:59:13.302Z,8.67
2017-06-12T05:01:41.964Z,11.37
2017-06-12T05:04:10.580Z,7.30
2017-06-12T05:06:39.080Z,9.57
2017-06-12T05:09:08.028Z,6.33
2017-06-12T05:11:36.520Z,8.83
2017-06-12T05:14:04.985Z,6.83
2017-06-12T05:16:33.684Z,7.00
2017-06-12T05:19:02.533Z,9.17
2017-06-12T05:21:30.993Z,6.30
2017-06-12T05:23:59.737Z,8.17
2017-06-12T05:26:28.281Z,8.70
2017-06-12T06:20:49.919Z,6.40
2017-06-12T06:33:09.985Z,9.83
2017-06-12T06:35:38.465Z,12.43
2017-06-12T06:38:06.961Z,10.50
2017-06-12T06:40:35.938Z,6.70
2017-06-12T06:43:04.432Z,10.77
2017-06-12T06:45:32.923Z,6.13
2017-06-12T06:48:01.555Z,7.93
2017-06-12T06:50:30.768Z,8.63
2017-06-12T06:52:59.299Z,6.63
2017-06-12T06:55:28.075Z,8.67
2017-06-12T06:57:56.525Z,6.50
2017-06-12T07:00:25.362Z,11.73
2017-06-12T07:02:53.865Z,4.37
2017-06-12T07:05:22.366Z,7.97
2017-06-12T07:07:51.386Z,7.33
2017-06-12T07:10:20.147Z,7.77
2017-06-12T07:12:49.533Z,7.90
2017-06-12T07:15:22.867Z,8.80
2017-06-12T07:17:52.730Z,6.83
2017-06-12T07:20:21.294Z,8.37
2017-06-12T07:22:50.307Z,5.70
2017-06-12T07:25:18.802Z,5.93
2017-06-12T07:27:47.285Z,8.47
2017-06-12T07:30:15.885Z,11.13
2017-06-12T07:32:44.775Z,8.30
2017-06-12T07:35:13.421Z,10.50
2017-06-12T07:37:41.962Z,8.47
2017-06-12T07:40:11.201Z,7.70
2017-06-12T07:42:39.698Z,5.47
2017-06-12T07:45:08.245Z,6.20
2017-06-12T07:47:36.856Z,7.63
2017-06-12T07:50:05.329Z,6.60
2017-06-12T07:52:35.700Z,6.63
2017-06-12T07:55:04.162Z,4.47
2017-06-12T07:57:32.855Z,8.27
2017-06-12T08:00:02.366Z,7.20
2017-06-12T08:02:31.022Z,5.77
2017-06-12T08:05:01.979Z,4.83
2017-06-12T08:07:30.461Z,6.33
2017-06-12T08:09:59.340Z,5.20
2017-06-12T08:12:27.805Z,4.47
2017-06-12T08:14:56.520Z,5.20
2017-06-12T08:17:25.348Z,6.00
2017-06-12T08:19:54.569Z,8.53
2017-06-12T08:22:23.106Z,7.63
2017-06-12T08:24:51.589Z,4.73
2017-06-12T08:27:20.068Z,3.03
2017-06-12T08:29:49.030Z,5.87
2017-06-12T08:32:18.081Z,7.30
2017-06-12T08:34:47.448Z,3.40
2017-06-12T08:37:16.030Z,3.63
2017-06-12T08:39:44.511Z,5.33
2017-06-12T08:42:13.241Z,4.10
2017-06-12T08:44:42.451Z,3.93
2017-06-12T08:47:11.173Z,5.00
2017-06-12T08:49:39.674Z,6.53
2017-06-12T08:52:08.358Z,5.43
2017-06-12T08:54:36.888Z,3.17
2017-06-12T08:57:06.597Z,4.07
2017-06-12T08:59:35.841Z,4.30
2017-06-12T09:02:04.405Z,11.30
2017-06-12T09:04:33.516Z,3.60
2017-06-12T09:07:04.213Z,4.13
2017-06-12T09:09:34.123Z,3.60
2017-06-12T09:12:03.828Z,1.57
2017-06-12T09:14:32.465Z,5.60
2017-06-12T09:17:01.378Z,3.60
2017-06-12T09:19:30.208Z,5.83
2017-06-12T09:21:58.942Z,5.53
2017-06-12T09:24:27.718Z,5.73
2017-06-12T09:27:01.047Z,3.63
2017-06-12T09:29:29.967Z,3.70
2017-06-12T09:31:59.326Z,3.63
2017-06-12T09:34:28.169Z,4.10
2017-06-12T09:36:57.540Z,3.37
2017-06-12T09:39:26.138Z,5.07
2017-06-12T09:41:54.669Z,8.93
2017-06-12T09:44:23.187Z,3.70
2017-06-12T09:46:53.013Z,4.47
2017-06-12T09:51:59.653Z,5.63
2017-06-12T09:54:28.617Z,5.73
2017-06-12T09:56:57.854Z,4.13
2017-06-12T09:59:26.978Z,4.80
2017-06-12T10:01:55.424Z,4.20
2017-06-12T10:04:23.938Z,2.70
2017-06-12T10:06:52.425Z,4.80
2017-06-12T10:09:20.882Z,2.93
2017-06-12T10:11:49.357Z,5.97
2017-06-12T10:14:17.905Z,3.00
2017-06-12T10:16:47.137Z,3.23
2017-06-12T10:19:15.689Z,3.20
2017-06-12T10:21:44.929Z,4.10
2017-06-12T10:24:14.573Z,6.73
2017-06-12T10:26:43.342Z,7.83
2017-06-12T10:29:12.049Z,4.40
2017-06-12T10:31:40.542Z,4.67
2017-06-12T10:34:09.041Z,6.17
2017-06-12T10:36:38.377Z,6.03
2017-06-12T10:39:07.604Z,4.27
2017-06-12T10:41:36.178Z,4.37
2017-06-12T10:44:04.664Z,4.37
2017-06-12T10:46:33.158Z,4.20
2017-06-12T10:49:01.625Z,5.47
2017-06-12T10:51:30.598Z,3.87
2017-06-12T10:53:59.149Z,3.30
2017-06-12T10:56:27.634Z,5.80
2017-06-12T10:58:56.542Z,5.00
2017-06-12T11:01:26.004Z,4.23
2017-06-12T11:03:54.489Z,6.47
2017-06-12T11:06:23.186Z,5.17
2017-06-12T11:08:51.641Z,8.53
2017-06-12T11:11:20.104Z,4.13
2017-06-12T11:13:49.037Z,7.87
2017-06-12T11:16:17.793Z,5.03
2017-06-12T11:18:46.621Z,5.93
2017-06-12T11:21:15.310Z,5.60
2017-06-12T11:23:43.840Z,7.63
2017-06-12T11:26:13.870Z,4.50
2017-06-12T11:28:42.337Z,8.33
2017-06-12T11:31:15.807Z,6.00
2017-06-12T11:33:45.479Z,3.70
2017-06-12T11:36:15.637Z,7.70
2017-06-12T11:38:44.153Z,4.10
2017-06-12T11:41:12.696Z,5.97
2017-06-12T11:43:41.303Z,7.60
2017-06-12T11:46:10.781Z,3.93
2017-06-12T11:48:39.329Z,5.57
2017-06-12T11:51:07.808Z,4.40
2017-06-12T11:53:37.647Z,5.43
2017-06-12T11:56:06.337Z,5.50
2017-06-12T11:58:34.812Z,5.80
2017-06-12T12:01:03.352Z,4.67
2017-06-12T12:03:31.849Z,7.90
2017-06-12T12:06:01.971Z,5.53
2017-06-12T12:08:30.648Z,5.53
2017-06-12T12:10:59.397Z,6.10
2017-06-12T12:13:27.896Z,3.80
2017-06-12T12:15:57.605Z,5.97
2017-06-12T12:18:26.965Z,9.43
2017-06-12T12:20:55.638Z,5.77
2017-06-12T12:23:24.553Z,6.10
2017-06-12T12:25:53.138Z,4.10
2017-06-12T12:28:21.599Z,7.20
2017-06-12T12:30:50.273Z,4.00
2017-06-12T12:33:19.169Z,6.80
2017-06-12T12:35:47.658Z,6.73
2017-06-12T12:38:16.318Z,4.37
2017-06-12T12:40:44.784Z,5.57
2017-06-12T12:43:13.344Z,3.90
2017-06-12T12:45:41.830Z,5.60
2017-06-12T12:48:10.306Z,4.97
2017-06-12T12:50:38.845Z,9.60
2017-06-12T12:53:07.392Z,7.30
2017-06-12T12:55:35.938Z,7.53
2017-06-12T12:58:04.630Z,4.20
2017-06-12T13:00:33.351Z,5.30
2017-06-12T13:03:02.567Z,6.60
2017-06-12T13:05:31.289Z,5.50
2017-06-12T13:07:59.788Z,6.67
2017-06-12T13:10:28.554Z,8.13
2017-06-12T13:12:57.025Z,5.43
2017-06-12T13:15:25.660Z,6.37
2017-06-12T13:17:54.149Z,4.03
2017-06-12T13:20:22.721Z,5.00
2017-06-12T13:22:51.184Z,9.97
2017-06-12T13:25:20.185Z,6.17
2017-06-12T13:27:49.397Z,4.93
2017-06-12T13:30:18.193Z,5.03
2017-06-12T13:32:46.845Z,3.10
2017-06-12T13:35:15.365Z,5.43
2017-06-12T13:37:44.092Z,4.40
2017-06-12T13:40:13.169Z,7.50
2017-06-12T13:42:43.909Z,4.33
2017-06-12T13:45:13.325Z,5.40
2017-06-12T13:47:41.851Z,5.30
2017-06-12T13:50:10.461Z,3.20
2017-06-12T13:52:39.093Z,3.73
2017-06-12T13:55:09.314Z,4.03
2017-06-12T13:57:37.948Z,5.63
2017-06-12T14:00:08.019Z,3.00
2017-06-12T14:02:36.856Z,3.80
2017-06-12T14:05:07.473Z,3.87
2017-06-12T14:07:36.913Z,3.23
2017-06-12T14:10:07.264Z,2.73
2017-06-12T14:12:37.010Z,3.63
2017-06-12T14:15:06.402Z,4.80
2017-06-12T14:17:37.262Z,5.00
2017-06-12T14:20:07.552Z,3.53
2017-06-12T14:22:38.013Z,3.37
2017-06-12T14:25:08.389Z,3.87
2017-06-12T14:27:40.445Z,2.93
2017-06-12T14:30:09.591Z,4.80
2017-06-12T14:32:38.113Z,5.43
2017-06-12T14:35:06.782Z,5.20
2017-06-12T14:37:36.684Z,5.20
2017-06-12T14:40:06.823Z,4.83
2017-06-12T14:42:37.017Z,6.30
2017-06-12T14:45:05.895Z,4.73
2017-06-12T14:47:34.565Z,5.30
2017-06-12T14:50:08.812Z,6.00
2017-06-12T14:52:37.980Z,6.60
2017-06-12T14:55:06.527Z,4.73
2017-06-12T14:57:35.187Z,6.03
2017-06-12T15:00:03.759Z,7.90
2017-06-12T15:02:32.221Z,4.53
2017-06-12T15:05:01.277Z,8.97
2017-06-12T15:07:29.753Z,6.23
2017-06-12T15:09:58.258Z,5.53
2017-06-12T15:12:27.666Z,6.67
2017-06-12T15:14:56.299Z,5.70
2017-06-12T15:17:24.973Z,5.40
2017-06-12T15:19:53.596Z,6.77
2017-06-12T15:22:28.534Z,6.43
2017-06-12T15:24:57.082Z,8.00
2017-06-12T15:27:25.778Z,8.43
2017-06-12T15:29:54.933Z,7.20
2017-06-12T15:32:24.441Z,7.57
2017-06-12T15:34:53.245Z,4.50
2017-06-12T15:37:21.781Z,7.50
2017-06-12T15:39:50.260Z,6.60
2017-06-12T15:42:18.746Z,6.20
2017-06-12T15:44:47.663Z,6.10
2017-06-12T15:47:17.402Z,6.53
2017-06-12T15:49:46.009Z,5.17
2017-06-12T15:52:14.591Z,3.90
2017-06-12T15:54:43.070Z,6.00
2017-06-12T15:57:11.711Z,7.23
2017-06-12T15:59:41.190Z,4.53
2017-06-12T16:02:09.669Z,5.50
2017-06-12T16:04:38.140Z,4.73
2017-06-12T16:07:15.499Z,11.00
2017-06-12T16:09:44.733Z,5.00
2017-06-12T16:12:13.460Z,4.80
2017-06-12T16:14:42.834Z,5.77
2017-06-12T16:17:11.298Z,5.43
2017-06-12T16:19:40.061Z,7.47
2017-06-12T16:22:08.578Z,4.50
2017-06-12T16:24:37.132Z,4.63
2017-06-12T16:27:05.617Z,6.73
2017-06-12T16:29:34.157Z,5.10
2017-06-12T16:32:03.180Z,5.00
2017-06-12T16:34:32.464Z,5.97
2017-06-12T16:37:00.936Z,5.47
2017-06-12T16:39:29.635Z,6.10
2017-06-12T16:41:58.382Z,3.50
2017-06-12T16:44:27.067Z,10.10
2017-06-12T16:46:55.878Z,5.30
2017-06-12T16:49:24.385Z,6.13
2017-06-12T16:51:54.573Z,3.43
2017-06-12T16:54:23.012Z,9.27
2017-06-12T16:56:52.042Z,3.10
2017-06-12T16:59:20.975Z,5.93
2017-06-12T17:01:50.209Z,3.43
2017-06-12T17:04:18.780Z,5.73
2017-06-12T17:06:47.397Z,7.17
2017-06-12T17:09:15.984Z,6.13
2017-06-12T17:11:44.849Z,4.70
2017-06-12T17:14:13.549Z,5.23
2017-06-12T17:16:42.153Z,4.10
2017-06-12T17:19:10.881Z,4.17
2017-06-12T17:21:39.567Z,4.37
2017-06-12T17:24:08.869Z,2.77
2017-06-12T17:26:38.106Z,5.80
2017-06-12T17:29:06.694Z,4.03
2017-06-12T17:31:35.222Z,4.47
2017-06-12T17:34:03.794Z,4.87
2017-06-12T17:36:32.317Z,3.67
2017-06-12T17:39:00.943Z,5.93
2017-06-12T17:41:29.414Z,4.87
2017-06-12T17:43:58.141Z,3.53
2017-06-12T17:46:27.068Z,3.77
2017-06-12T17:48:57.163Z,5.47
2017-06-12T17:51:25.860Z,4.67
2017-06-12T17:53:55.345Z,8.50
2017-06-12T17:56:24.105Z,4.70
2017-06-12T17:58:53.127Z,4.60
2017-06-12T18:01:21.839Z,4.07
2017-06-12T18:03:51.346Z,6.83
2017-06-12T18:06:20.668Z,4.60
2017-06-12T18:08:49.705Z,4.77
2017-06-12T18:11:19.019Z,4.00
2017-06-12T18:13:47.693Z,6.90
2017-06-12T18:16:16.601Z,6.37
2017-06-12T18:18:46.126Z,10.13
2017-06-12T18:21:15.109Z,3.40
2017-06-12T18:23:43.584Z,7.30
2017-06-12T18:26:12.576Z,4.30
2017-06-12T18:28:41.493Z,3.67
2017-06-12T18:31:10.738Z,4.07
2017-06-12T18:33:39.775Z,5.43
2017-06-12T18:36:08.429Z,4.57
2017-06-12T18:38:37.033Z,7.43
2017-06-12T18:41:05.553Z,8.80
2017-06-12T18:43:34.885Z,4.30
2017-06-12T18:46:03.438Z,6.10
2017-06-12T18:48:33.189Z,5.57
2017-06-12T18:51:01.858Z,5.37
2017-06-12T18:53:30.925Z,6.40
2017-06-12T18:55:59.385Z,5.83
2017-06-12T18:58:27.930Z,8.30
2017-06-12T19:00:56.723Z,7.43
2017-06-12T19:03:25.429Z,5.90
2017-06-12T19:05:54.035Z,7.23
2017-06-12T19:08:22.489Z,3.20
2017-06-12T19:10:51.365Z,7.30
2017-06-12T19:13:20.121Z,3.47
2017-06-12T19:15:48.805Z,6.60
2017-06-12T19:18:17.509Z,7.50
2017-06-12T19:20:45.971Z,4.93
2017-06-12T19:23:14.556Z,6.00
2017-06-12T19:25:44.016Z,6.97
2017-06-12T19:28:13.152Z,6.90
2017-06-12T19:30:41.653Z,5.90
2017-06-12T19:33:10.991Z,4.03
2017-06-12T19:35:39.795Z,5.73
2017-06-12T19:38:08.279Z,3.27
2017-06-12T19:40:37.300Z,3.17
2017-06-12T19:43:06.723Z,3.83
2017-06-12T19:45:35.992Z,4.63
2017-06-12T19:48:04.763Z,5.03
2017-06-12T19:50:33.653Z,6.57
2017-06-12T19:53:02.308Z,6.60
2017-06-12T19:55:30.980Z,4.40
2017-06-12T19:58:00.325Z,4.43
2017-06-12T20:00:28.861Z,6.23
2017-06-12T20:02:57.369Z,5.43
2017-06-12T20:05:25.893Z,8.27
2017-06-12T20:07:55.001Z,4.80
2017-06-12T20:10:23.501Z,4.67
2017-06-12T20:12:52.294Z,8.73
2017-06-12T20:15:20.806Z,3.70
2017-06-12T20:17:49.501Z,6.67
2017-06-12T20:20:18.029Z,6.70
2017-06-12T20:22:47.001Z,6.30
2017-06-12T20:25:15.797Z,7.07
2017-06-12T20:27:44.493Z,7.40
2017-06-12T20:30:13.049Z,7.17
2017-06-12T20:32:41.601Z,6.47
2017-06-12T20:35:10.322Z,6.53
2017-06-12T20:37:38.848Z,5.17
2017-06-12T20:40:07.527Z,9.50
2017-06-12T20:42:36.057Z,7.13
2017-06-12T20:45:05.285Z,6.60
2017-06-12T20:47:33.774Z,4.20
2017-06-12T20:50:02.313Z,5.13
2017-06-12T20:52:31.018Z,4.87
2017-06-12T20:54:59.757Z,4.40
2017-06-12T20:57:28.249Z,5.93
2017-06-12T20:59:56.877Z,4.90
2017-06-12T21:02:25.694Z,8.27
2017-06-12T21:04:54.178Z,8.00
2017-06-12T21:07:22.646Z,7.60
2017-06-12T21:09:51.615Z,7.73
2017-06-12T21:12:21.726Z,6.43
2017-06-12T21:14:50.193Z,7.53
2017-06-12T21:17:19.435Z,6.67
2017-06-12T21:19:49.145Z,5.53
2017-06-12T21:22:17.902Z,5.53
2017-06-12T21:24:47.154Z,5.73
2017-06-12T21:27:15.671Z,3.77
2017-06-12T21:29:44.199Z,8.13
2017-06-12T21:32:14.139Z,4.60
2017-06-12T21:34:43.153Z,8.33
2017-06-12T21:37:12.329Z,5.73
2017-06-12T21:39:42.270Z,5.20
2017-06-12T21:42:11.073Z,3.90
2017-06-12T21:44:40.313Z,5.20
2017-06-12T21:47:09.276Z,4.53
2017-06-12T21:49:38.487Z,5.47
2017-06-12T21:52:07.202Z,8.47
2017-06-12T21:54:35.702Z,3.53
2017-06-12T21:57:04.605Z,6.27
2017-06-12T21:59:33.281Z,3.07
2017-06-12T22:02:01.749Z,5.80
2017-06-12T22:04:30.339Z,7.10
2017-06-12T22:06:58.789Z,7.10
2017-06-12T22:09:27.665Z,5.00
2017-06-12T22:11:56.941Z,4.57
2017-06-12T22:14:25.643Z,8.97
2017-06-12T22:16:54.130Z,8.43
2017-06-12T22:19:23.377Z,13.77
2017-06-12T22:21:52.118Z,6.97
2017-06-12T22:24:21.353Z,3.60
2017-06-12T22:26:49.837Z,5.37
2017-06-12T22:29:18.426Z,4.70
2017-06-12T22:31:55.450Z,5.87
2017-06-12T22:34:24.281Z,8.37
2017-06-12T22:36:53.250Z,6.00
2017-06-12T22:39:22.497Z,8.40
2017-06-12T22:41:50.965Z,6.97
2017-06-12T22:44:19.460Z,4.00
2017-06-12T22:46:47.947Z,5.43
2017-06-12T22:49:16.952Z,3.30
2017-06-12T22:51:45.462Z,10.77
2017-06-12T22:54:13.946Z,6.33
2017-06-12T22:56:42.545Z,6.77
2017-06-12T22:59:11.760Z,5.93
2017-06-12T23:01:40.343Z,6.03
2017-06-12T23:04:09.737Z,7.83
2017-06-12T23:06:38.217Z,4.97
2017-06-12T23:09:06.698Z,4.10
2017-06-12T23:11:36.541Z,6.77
2017-06-12T23:14:05.125Z,5.40
2017-06-12T23:16:33.573Z,6.60
2017-06-12T23:19:02.366Z,4.97
2017-06-12T23:21:36.350Z,7.80
2017-06-12T23:24:05.949Z,6.97
2017-06-12T23:26:34.568Z,4.37
2017-06-12T23:29:03.200Z,6.13
2017-06-12T23:31:32.140Z,6.23
2017-06-12T23:34:00.581Z,5.57
2017-06-12T23:36:29.054Z,6.03
2017-06-12T23:38:57.660Z,7.37
2017-06-12T23:41:26.116Z,5.40
2017-06-12T23:43:54.643Z,3.47
2017-06-12T23:46:23.081Z,4.40
2017-06-12T23:48:51.549Z,2.93
2017-06-12T23:51:19.998Z,6.60
2017-06-12T23:53:48.673Z,4.60
2017-06-12T23:56:17.138Z,4.20
2017-06-12T23:58:45.913Z,5.30
